Time;durP1;ratioP1;P1;durP2;ratioP2;P2;SDS_P1;SDS_P2;PMS_P1;PMS_P2;Temp;Humidity;BMP_temperature;BMP_pressure;BME280_temperature;BME280_humidity;BME280_pressure;Samples;Min_cycle;Max_cycle;Signal;HPM_P1;HPM_P2
2021/07/29 00:02:08;;;;;;;10.02;5.50;;;14.70;99.90;;;;;;5030225;28;20232;-46
2021/07/29 00:04:34;;;;;;;8.50;5.22;;;14.70;99.90;;;;;;5030094;28;20048;-45
2021/07/29 00:07:00;;;;;;;6.72;5.47;;;14.70;99.90;;;;;;5030305;28;20057;-44
2021/07/29 00:09:26;;;;;;;8.00;5.32;;;14.60;99.90;;;;;;5029202;28;20052;-44
2021/07/29 00:11:53;;;;;;;8.52;6.03;;;14.60;99.90;;;;;;5028978;28;20054;-46
2021/07/29 00:14:19;;;;;;;8.60;5.57;;;14.60;99.90;;;;;;5030448;28;20045;-45
2021/07/29 00:16:48;;;;;;;9.80;5.43;;;14.50;99.90;;;;;;5031609;28;20557;-44
2021/07/29 00:19:14;;;;;;;7.35;5.78;;;14.60;99.90;;;;;;5030778;28;20178;-45
2021/07/29 00:21:40;;;;;;;8.77;5.43;;;14.60;99.90;;;;;;5029231;28;20425;-46
2021/07/29 00:24:07;;;;;;;9.48;6.10;;;14.60;99.90;;;;;;5023562;28;20052;-44
2021/07/29 00:26:37;;;;;;;9.98;5.30;;;14.60;99.90;;;;;;5029852;28;20034;-44
2021/07/29 00:29:03;;;;;;;10.02;5.43;;;14.50;99.90;;;;;;5028271;28;20056;-47
2021/07/29 00:31:31;;;;;;;6.32;5.05;;;14.60;99.90;;;;;;5029017;28;20067;-44
2021/07/29 00:33:57;;;;;;;9.70;5.22;;;14.50;99.90;;;;;;5030486;28;20569;-44
2021/07/29 00:36:28;;;;;;;7.97;4.68;;;14.50;99.90;;;;;;5032727;28;20394;-44
2021/07/29 00:39:00;;;;;;;6.93;5.18;;;14.50;99.90;;;;;;5031190;28;20064;-46
2021/07/29 00:41:26;;;;;;;7.45;5.10;;;14.50;99.90;;;;;;5016108;28;20045;-44
2021/07/29 00:44:01;;;;;;;12.82;5.53;;;14.60;99.90;;;;;;5030345;28;20057;-46
2021/07/29 00:46:30;;;;;;;8.65;5.07;;;14.50;99.90;;;;;;5029122;28;20490;-46
2021/07/29 00:48:58;;;;;;;8.63;5.10;;;14.60;99.90;;;;;;5030027;28;20049;-45
2021/07/29 00:51:25;;;;;;;7.57;5.22;;;14.60;99.90;;;;;;5030430;28;20049;-44
2021/07/29 00:53:52;;;;;;;9.13;4.90;;;14.70;99.90;;;;;;5022753;28;20391;-45
2021/07/29 00:56:18;;;;;;;9.00;5.28;;;14.60;99.90;;;;;;5028732;28;20057;-46
2021/07/29 00:58:45;;;;;;;8.57;5.00;;;14.60;99.90;;;;;;5010659;28;20065;-45
2021/07/29 01:01:13;;;;;;;8.45;5.30;;;14.70;99.90;;;;;;5017833;28;20061;-43
2021/07/29 01:03:42;;;;;;;10.90;5.35;;;14.80;99.90;;;;;;5026907;28;20377;-44
2021/07/29 01:06:11;;;;;;;7.60;5.18;;;14.70;99.90;;;;;;5029849;28;20513;-45
2021/07/29 01:08:59;;;;;;;8.85;5.47;;;14.70;99.90;;;;;;5029248;28;20045;-44
2021/07/29 01:11:26;;;;;;;10.70;4.80;;;14.60;99.90;;;;;;5032237;28;20049;-44
2021/07/29 01:13:54;;;;;;;10.27;5.57;;;14.60;99.90;;;;;;5028824;28;20095;-44
2021/07/29 01:16:23;;;;;;;10.23;5.35;;;14.70;99.90;;;;;;5030440;28;20145;-45
2021/07/29 01:18:49;;;;;;;6.07;4.40;;;14.70;99.90;;;;;;5030416;28;20055;-44
2021/07/29 01:21:15;;;;;;;7.90;4.72;;;14.80;99.90;;;;;;5030371;28;20060;-44
2021/07/29 01:23:41;;;;;;;10.20;4.82;;;14.70;99.90;;;;;;5028262;28;20057;-45
2021/07/29 01:26:07;;;;;;;10.02;5.20;;;14.70;99.90;;;;;;5029841;28;20046;-44
2021/07/29 01:28:36;;;;;;;9.07;5.35;;;14.70;99.90;;;;;;5029165;28;20691;-45
2021/07/29 01:31:02;;;;;;;8.70;5.07;;;14.70;99.90;;;;;;5028163;28;20050;-45
2021/07/29 01:33:31;;;;;;;14.10;5.65;;;14.60;99.90;;;;;;5029489;28;20595;-47
2021/07/29 01:35:58;;;;;;;13.07;5.30;;;14.60;99.90;;;;;;5027541;28;20432;-45
2021/07/29 01:38:24;;;;;;;8.60;5.28;;;14.70;99.90;;;;;;5029321;28;20080;-46
2021/07/29 01:40:50;;;;;;;6.43;4.95;;;14.70;99.90;;;;;;5028768;28;20049;-44
2021/07/29 01:43:16;;;;;;;11.10;5.57;;;14.70;99.90;;;;;;5036077;28;20052;-47
2021/07/29 01:45:44;;;;;;;9.68;4.93;;;14.70;99.90;;;;;;5025440;28;20046;-44
2021/07/29 01:48:10;;;;;;;8.38;4.88;;;14.70;99.90;;;;;;5029005;28;20449;-45
2021/07/29 01:50:36;;;;;;;10.73;5.63;;;14.70;99.90;;;;;;5027885;28;20059;-46
2021/07/29 01:53:03;;;;;;;10.27;5.88;;;14.70;99.90;;;;;;5019144;28;20587;-44
2021/07/29 01:55:29;;;;;;;9.40;4.97;;;14.80;99.90;;;;;;5027095;28;20061;-45
2021/07/29 01:57:57;;;;;;;9.75;4.45;;;14.80;99.90;;;;;;5028848;28;20049;-44
2021/07/29 02:00:25;;;;;;;7.20;4.57;;;14.90;99.90;;;;;;5028928;28;20106;-46
2021/07/29 02:02:51;;;;;;;9.95;4.82;;;14.80;99.90;;;;;;5021672;28;20050;-43
2021/07/29 02:05:17;;;;;;;8.20;4.85;;;14.90;99.90;;;;;;5019182;28;20046;-45
2021/07/29 02:07:44;;;;;;;9.30;4.95;;;14.90;99.90;;;;;;5032579;28;20041;-45
2021/07/29 02:10:10;;;;;;;10.70;4.43;;;14.90;99.90;;;;;;5028117;28;20060;-45
2021/07/29 02:12:39;;;;;;;13.50;4.53;;;14.90;99.90;;;;;;5028020;28;20056;-44
2021/07/29 02:15:06;;;;;;;7.55;4.68;;;14.90;99.90;;;;;;5027175;28;20146;-44
2021/07/29 02:17:33;;;;;;;9.52;4.30;;;14.80;99.90;;;;;;5028624;28;20126;-45
2021/07/29 02:20:01;;;;;;;10.32;4.60;;;14.80;99.90;;;;;;5015400;28;20144;-45
2021/07/29 02:22:28;;;;;;;9.50;4.00;;;14.80;99.90;;;;;;5026651;28;20179;-44
2021/07/29 02:24:56;;;;;;;10.27;4.70;;;14.70;99.90;;;;;;5027790;28;20452;-45
2021/07/29 02:27:24;;;;;;;10.52;4.30;;;14.70;99.90;;;;;;5026123;28;20445;-45
2021/07/29 02:29:53;;;;;;;9.32;4.20;;;14.70;99.90;;;;;;5026425;28;20053;-45
2021/07/29 02:32:24;;;;;;;4.30;3.35;;;14.70;99.90;;;;;;5025453;28;20049;-43
2021/07/29 02:34:52;;;;;;;9.63;4.20;;;14.70;99.90;;;;;;5026390;28;20168;-43
2021/07/29 02:37:22;;;;;;;8.40;4.43;;;14.80;99.90;;;;;;5026895;28;20050;-46
2021/07/29 02:39:48;;;;;;;10.20;3.83;;;14.80;99.90;;;;;;5025757;28;20080;-45
2021/07/29 02:42:17;;;;;;;8.57;3.53;;;14.70;99.90;;;;;;5008035;28;20062;-45
2021/07/29 02:44:43;;;;;;;5.20;2.67;;;14.60;99.90;;;;;;5021094;28;20054;-43
2021/07/29 02:47:10;;;;;;;5.82;2.25;;;14.50;99.90;;;;;;5027225;28;20087;-45
2021/07/29 02:49:36;;;;;;;4.97;1.63;;;14.40;99.90;;;;;;5023232;28;20456;-45
2021/07/29 02:52:06;;;;;;;3.55;1.70;;;14.20;99.90;;;;;;5010779;28;20050;-46
2021/07/29 02:54:33;;;;;;;5.68;1.70;;;14.00;99.90;;;;;;5018924;28;20061;-45
2021/07/29 02:56:59;;;;;;;5.00;2.50;;;13.90;99.90;;;;;;5026743;28;20065;-44
2021/07/29 02:59:25;;;;;;;2.50;1.33;;;13.70;99.90;;;;;;5034240;28;20053;-45
2021/07/29 03:01:51;;;;;;;3.42;1.20;;;13.70;99.90;;;;;;5022923;28;20081;-43
2021/07/29 03:04:20;;;;;;;3.22;1.20;;;13.60;99.90;;;;;;5018671;28;20053;-44
2021/07/29 03:06:49;;;;;;;4.55;1.50;;;13.50;99.90;;;;;;5022980;28;20494;-44
2021/07/29 03:09:15;;;;;;;2.47;1.05;;;13.40;99.90;;;;;;5027294;28;20497;-43
2021/07/29 03:11:44;;;;;;;2.92;1.30;;;13.40;99.90;;;;;;5027266;28;20060;-44
2021/07/29 03:14:10;;;;;;;2.45;1.38;;;13.30;99.90;;;;;;5028100;28;20049;-43
2021/07/29 03:16:36;;;;;;;5.72;2.67;;;13.20;99.90;;;;;;5021748;28;20053;-44
2021/07/29 03:19:06;;;;;;;7.22;4.00;;;13.30;99.90;;;;;;5022355;28;20057;-43
2021/07/29 03:21:34;;;;;;;7.97;3.80;;;13.40;99.90;;;;;;5027770;28;20053;-45
2021/07/29 03:24:00;;;;;;;5.20;2.90;;;13.40;99.90;;;;;;5027068;28;20045;-44
2021/07/29 03:26:26;;;;;;;5.10;2.58;;;13.40;99.90;;;;;;5025631;28;20052;-45
2021/07/29 03:28:53;;;;;;;5.28;2.00;;;13.50;99.90;;;;;;5025007;28;20053;-44
2021/07/29 03:31:22;;;;;;;5.80;2.53;;;13.50;99.90;;;;;;5023530;28;20175;-43
2021/07/29 03:33:49;;;;;;;3.28;2.05;;;13.50;99.90;;;;;;5029832;28;20135;-44
2021/07/29 03:36:17;;;;;;;5.68;2.30;;;13.40;99.90;;;;;;5025451;28;20136;-43
2021/07/29 03:38:46;;;;;;;5.30;2.20;;;13.40;99.90;;;;;;5045489;28;20045;-44
2021/07/29 03:41:12;;;;;;;8.30;2.40;;;13.40;99.90;;;;;;5028598;28;20045;-45
2021/07/29 03:43:38;;;;;;;7.00;2.80;;;13.40;99.90;;;;;;5031141;28;20061;-43
2021/07/29 03:46:04;;;;;;;5.07;2.42;;;13.40;99.90;;;;;;5029614;28;20563;-44
2021/07/29 03:48:30;;;;;;;6.07;2.75;;;13.40;99.90;;;;;;5031072;28;20037;-46
2021/07/29 03:50:59;;;;;;;6.63;2.97;;;13.30;99.90;;;;;;5030882;28;20215;-45
2021/07/29 03:53:25;;;;;;;6.88;3.45;;;13.30;99.90;;;;;;5032608;28;20037;-43
2021/07/29 03:55:51;;;;;;;6.43;3.53;;;13.20;99.90;;;;;;5029903;28;20057;-43
2021/07/29 03:58:18;;;;;;;5.53;3.75;;;13.20;99.90;;;;;;5028754;28;20049;-47
2021/07/29 04:00:44;;;;;;;10.70;5.22;;;13.30;99.90;;;;;;5035901;28;20053;-46
2021/07/29 04:03:10;;;;;;;24.55;17.90;;;13.30;99.90;;;;;;5031712;28;20045;-46
2021/07/29 04:05:37;;;;;;;44.25;38.67;;;13.30;99.90;;;;;;5031557;28;20879;-45
2021/07/29 04:08:06;;;;;;;13.93;7.95;;;13.40;99.90;;;;;;5031551;28;20056;-46
2021/07/29 04:10:32;;;;;;;8.98;4.82;;;13.40;99.90;;;;;;5031119;28;20053;-45
2021/07/29 04:12:59;;;;;;;26.95;20.73;;;13.40;99.90;;;;;;5031064;28;20566;-46
2021/07/29 04:15:25;;;;;;;35.47;31.45;;;13.40;99.90;;;;;;5031646;28;20065;-46
2021/07/29 04:17:51;;;;;;;14.05;6.97;;;13.40;99.90;;;;;;5029973;28;20188;-47
2021/07/29 04:20:20;;;;;;;17.52;12.07;;;13.40;99.90;;;;;;5030984;28;20787;-47
2021/07/29 04:22:46;;;;;;;13.38;8.80;;;13.40;99.90;;;;;;5036445;28;20045;-45
2021/07/29 04:25:15;;;;;;;12.63;7.65;;;13.40;99.90;;;;;;5031152;28;20409;-44
2021/07/29 04:27:41;;;;;;;15.10;7.00;;;13.50;99.90;;;;;;5030908;28;20050;-45
2021/07/29 04:30:10;;;;;;;11.63;7.32;;;13.50;99.90;;;;;;5030863;28;20046;-44
2021/07/29 04:32:39;;;;;;;8.77;4.47;;;13.50;99.90;;;;;;5030035;28;20132;-48
2021/07/29 04:35:06;;;;;;;34.00;25.92;;;13.40;99.90;;;;;;5030806;28;20049;-48
2021/07/29 04:37:33;;;;;;;33.28;25.27;;;13.50;99.90;;;;;;5029651;28;20059;-47
2021/07/29 04:40:03;;;;;;;14.45;7.88;;;13.50;99.90;;;;;;5026200;28;20053;-46
2021/07/29 04:42:30;;;;;;;30.13;18.67;;;13.50;99.90;;;;;;5029303;28;20520;-48
2021/07/29 04:44:58;;;;;;;17.15;11.25;;;13.60;99.90;;;;;;5030771;28;20057;-48
2021/07/29 04:47:25;;;;;;;10.40;5.13;;;13.60;99.90;;;;;;5029319;28;20072;-46
2021/07/29 04:49:52;;;;;;;10.88;5.10;;;13.60;99.90;;;;;;5031423;28;20041;-46
2021/07/29 04:52:18;;;;;;;9.50;5.65;;;13.60;99.90;;;;;;5030695;28;20826;-44
2021/07/29 04:54:45;;;;;;;12.38;5.10;;;13.60;99.90;;;;;;5031154;28;20502;-46
2021/07/29 04:57:14;;;;;;;11.00;5.45;;;13.60;99.90;;;;;;5030850;28;20053;-44
2021/07/29 04:59:41;;;;;;;12.88;5.07;;;13.60;99.90;;;;;;5030185;28;20141;-46
2021/07/29 05:02:07;;;;;;;11.45;5.22;;;13.60;99.90;;;;;;5037845;28;20045;-44
2021/07/29 05:04:36;;;;;;;11.63;4.63;;;13.70;99.90;;;;;;5030894;28;20139;-44
2021/07/29 05:07:03;;;;;;;14.43;5.13;;;13.80;99.90;;;;;;5030933;28;20053;-44
2021/07/29 05:09:29;;;;;;;8.73;4.50;;;13.90;99.90;;;;;;5033951;28;20056;-45
2021/07/29 05:11:55;;;;;;;12.32;4.85;;;13.90;99.90;;;;;;5030127;28;20049;-45
2021/07/29 05:14:21;;;;;;;12.82;4.78;;;14.10;99.90;;;;;;5030109;28;20421;-44
2021/07/29 05:16:47;;;;;;;10.32;4.20;;;14.30;99.90;;;;;;5029963;28;20045;-44
2021/07/29 05:19:17;;;;;;;10.82;4.70;;;14.50;99.90;;;;;;5029116;28;20057;-47
2021/07/29 05:21:43;;;;;;;12.48;4.65;;;14.70;99.90;;;;;;5029553;28;20053;-45
2021/07/29 05:24:10;;;;;;;8.63;3.63;;;14.90;99.90;;;;;;5029534;28;20049;-46
2021/07/29 05:26:36;;;;;;;8.57;3.35;;;15.00;99.90;;;;;;5030027;28;20072;-45
2021/07/29 05:29:02;;;;;;;8.07;3.28;;;15.00;99.90;;;;;;5029822;28;20497;-45
2021/07/29 05:31:28;;;;;;;9.02;3.55;;;15.00;99.90;;;;;;5029498;28;20064;-46
2021/07/29 05:33:55;;;;;;;9.57;3.72;;;15.10;99.90;;;;;;5029829;28;20498;-45
2021/07/29 05:36:22;;;;;;;9.75;3.08;;;15.20;99.90;;;;;;5028282;28;20108;-44
2021/07/29 05:38:49;;;;;;;14.10;4.45;;;15.30;99.90;;;;;;5030158;28;20060;-47
2021/07/29 05:41:15;;;;;;;8.73;3.35;;;15.40;99.90;;;;;;5029635;28;20042;-46
2021/07/29 05:43:41;;;;;;;10.40;3.28;;;15.40;99.90;;;;;;5028672;28;20124;-43
2021/07/29 05:46:12;;;;;;;11.45;3.40;;;15.60;99.90;;;;;;5030044;28;20053;-44
2021/07/29 05:48:41;;;;;;;8.27;3.08;;;15.70;99.90;;;;;;5033504;28;20119;-45
2021/07/29 05:51:07;;;;;;;11.20;3.00;;;15.80;99.90;;;;;;5028729;28;20049;-44
2021/07/29 05:53:33;;;;;;;7.25;2.85;;;16.00;99.90;;;;;;5030117;28;20414;-44
2021/07/29 05:56:00;;;;;;;10.90;3.05;;;16.10;99.90;;;;;;5029510;28;20053;-45
2021/07/29 05:58:27;;;;;;;8.57;2.80;;;16.10;99.90;;;;;;5029760;28;20045;-45
2021/07/29 06:00:53;;;;;;;15.13;3.42;;;16.20;99.90;;;;;;5029274;28;20045;-44
2021/07/29 06:03:20;;;;;;;8.18;3.03;;;16.30;99.90;;;;;;5029496;28;20068;-47
2021/07/29 06:05:46;;;;;;;10.73;3.17;;;16.30;99.90;;;;;;5029167;28;20172;-46
2021/07/29 06:08:12;;;;;;;8.88;2.78;;;16.40;99.90;;;;;;5028878;28;20433;-47
2021/07/29 06:10:39;;;;;;;10.30;2.80;;;16.50;99.90;;;;;;5028964;28;20112;-48
2021/07/29 06:13:06;;;;;;;9.07;3.53;;;16.40;99.90;;;;;;5028337;28;20429;-47
2021/07/29 06:15:32;;;;;;;10.60;2.83;;;16.80;99.90;;;;;;5027357;28;20065;-46
2021/07/29 06:18:00;;;;;;;10.70;3.33;;;17.00;99.90;;;;;;5028395;28;20057;-46
2021/07/29 06:20:27;;;;;;;11.23;2.88;;;17.20;99.90;;;;;;5026176;28;20045;-47
2021/07/29 06:22:54;;;;;;;9.88;2.63;;;17.30;99.90;;;;;;5032543;28;20072;-45
2021/07/29 06:25:20;;;;;;;7.70;2.67;;;17.40;99.90;;;;;;5028395;28;20493;-47
2021/07/29 06:27:48;;;;;;;7.90;3.65;;;17.20;99.90;;;;;;5029374;28;20064;-48
2021/07/29 06:30:16;;;;;;;8.95;2.72;;;17.30;99.90;;;;;;5044106;28;20087;-47
2021/07/29 06:32:42;;;;;;;9.77;3.17;;;17.30;99.90;;;;;;5028492;28;20045;-48
2021/07/29 06:35:09;;;;;;;8.95;3.08;;;17.40;99.90;;;;;;5028951;28;20203;-46
2021/07/29 06:37:37;;;;;;;9.10;2.70;;;17.40;99.90;;;;;;5032958;28;20041;-48
2021/07/29 06:40:04;;;;;;;11.05;3.20;;;17.60;99.90;;;;;;5030120;28;20741;-48
2021/07/29 06:42:30;;;;;;;11.50;3.53;;;17.70;99.90;;;;;;5026853;28;20494;-47
2021/07/29 06:44:59;;;;;;;16.15;3.38;;;17.50;99.90;;;;;;5028676;28;20049;-47
2021/07/29 06:47:26;;;;;;;9.27;2.85;;;17.50;99.90;;;;;;5028815;28;20046;-47
2021/07/29 06:49:54;;;;;;;10.68;3.08;;;17.50;99.90;;;;;;5030885;28;20049;-49
2021/07/29 06:52:21;;;;;;;9.25;2.85;;;17.60;99.90;;;;;;5030107;28;20409;-46
2021/07/29 06:54:47;;;;;;;11.02;2.83;;;17.80;99.90;;;;;;5028378;28;20490;-48
2021/07/29 06:57:13;;;;;;;7.88;3.40;;;18.00;99.90;;;;;;5030265;28;20049;-47
2021/07/29 06:59:39;;;;;;;7.85;3.22;;;17.70;99.90;;;;;;5027805;28;20053;-45
2021/07/29 07:02:06;;;;;;;7.20;2.42;;;17.60;99.90;;;;;;5028210;28;20103;-45
2021/07/29 07:04:32;;;;;;;12.88;3.17;;;17.80;99.90;;;;;;5028168;28;20064;-48
2021/07/29 07:06:58;;;;;;;6.57;2.75;;;17.70;99.90;;;;;;5023217;28;20045;-46
2021/07/29 07:09:24;;;;;;;7.90;2.83;;;17.90;99.90;;;;;;5015360;28;20053;-47
2021/07/29 07:11:50;;;;;;;13.57;3.35;;;18.10;99.90;;;;;;5009616;28;20053;-46
2021/07/29 07:14:20;;;;;;;11.35;3.10;;;17.80;99.90;;;;;;5020521;28;20041;-46
2021/07/29 07:16:46;;;;;;;10.25;3.08;;;17.80;99.90;;;;;;5027477;28;20053;-45
2021/07/29 07:19:12;;;;;;;12.45;2.80;;;17.60;99.90;;;;;;5027797;28;20053;-47
2021/07/29 07:21:38;;;;;;;9.85;3.15;;;17.60;99.90;;;;;;5028613;28;20061;-45
2021/07/29 07:24:06;;;;;;;6.35;2.80;;;17.70;99.90;;;;;;5031809;28;20768;-44
2021/07/29 07:26:32;;;;;;;8.45;2.80;;;17.80;99.90;;;;;;5028023;28;20405;-47
2021/07/29 07:28:58;;;;;;;11.02;2.97;;;17.90;99.90;;;;;;5027772;28;20054;-45
2021/07/29 07:31:25;;;;;;;11.15;2.67;;;18.20;99.90;;;;;;5028129;28;20494;-46
2021/07/29 07:33:52;;;;;;;8.93;2.78;;;18.40;99.90;;;;;;5028303;28;20049;-45
2021/07/29 07:36:20;;;;;;;6.93;2.10;;;18.40;99.90;;;;;;5031461;28;20053;-46
2021/07/29 07:38:50;;;;;;;7.75;2.20;;;18.80;99.90;;;;;;5028328;28;20052;-46
2021/07/29 07:41:17;;;;;;;6.45;2.00;;;18.40;99.90;;;;;;5028032;28;20053;-47
2021/07/29 07:43:43;;;;;;;9.25;2.40;;;18.00;99.90;;;;;;5028185;28;20049;-45
2021/07/29 07:46:09;;;;;;;7.70;2.47;;;17.60;99.90;;;;;;5029315;28;20045;-45
2021/07/29 07:48:36;;;;;;;9.15;2.78;;;17.30;99.90;;;;;;5027587;28;20134;-45
2021/07/29 07:51:04;;;;;;;8.23;2.70;;;17.30;99.90;;;;;;5027343;28;20081;-47
2021/07/29 07:53:30;;;;;;;9.50;3.05;;;17.80;99.90;;;;;;5033707;28;20140;-45
2021/07/29 07:56:01;;;;;;;9.07;3.13;;;18.10;99.90;;;;;;5031045;28;20127;-46
2021/07/29 07:58:27;;;;;;;6.15;2.45;;;18.30;99.90;;;;;;5028490;28;20417;-45
2021/07/29 08:00:53;;;;;;;10.57;3.38;;;18.60;99.90;;;;;;5029837;28;20045;-45
2021/07/29 08:03:20;;;;;;;14.13;3.42;;;18.70;99.90;;;;;;5027707;28;20077;-46
2021/07/29 08:05:46;;;;;;;11.45;3.22;;;18.80;99.90;;;;;;5027756;28;20054;-47
2021/07/29 08:08:12;;;;;;;9.55;3.08;;;18.80;99.90;;;;;;5035125;28;20053;-45
2021/07/29 08:10:41;;;;;;;8.15;3.05;;;19.10;99.90;;;;;;5026753;28;20050;-46
2021/07/29 08:13:10;;;;;;;;;;;19.40;99.90;;;;;;5027626;28;20057;-47
2021/07/29 08:15:37;;;;;;;9.02;2.67;;;19.50;99.90;;;;;;5027750;28;19921;-44
2021/07/29 08:18:03;;;;;;;9.45;2.67;;;19.30;99.90;;;;;;5030355;28;20053;-46
2021/07/29 08:20:29;;;;;;;10.27;3.20;;;19.60;99.90;;;;;;5032151;28;20446;-46
2021/07/29 08:22:58;;;;;;;8.85;2.60;;;19.80;99.90;;;;;;5032879;28;20045;-46
2021/07/29 08:25:25;;;;;;;10.68;2.92;;;19.70;99.90;;;;;;5031061;28;20056;-46
2021/07/29 08:27:53;;;;;;;10.00;2.53;;;19.90;99.90;;;;;;5031116;28;20396;-50
2021/07/29 08:30:21;;;;;;;10.70;2.75;;;20.00;99.90;;;;;;5030719;28;20041;-46
2021/07/29 08:32:49;;;;;;;9.52;2.70;;;20.20;99.90;;;;;;5031527;28;20053;-45
2021/07/29 08:35:15;;;;;;;10.43;2.58;;;20.20;99.90;;;;;;5030457;28;20058;-47
2021/07/29 08:37:44;;;;;;;12.55;2.85;;;20.20;99.90;;;;;;5030322;28;20057;-45
2021/07/29 08:40:18;;;;;;;9.38;2.80;;;20.60;99.90;;;;;;5034573;28;20084;-46
2021/07/29 08:42:46;;;;;;;6.53;2.33;;;20.50;99.90;;;;;;5030214;28;20073;-45
2021/07/29 08:45:13;;;;;;;8.43;2.40;;;20.20;99.10;;;;;;5036100;28;20099;-45
2021/07/29 08:47:44;;;;;;;7.00;2.40;;;20.40;99.90;;;;;;5030895;28;20042;-43
2021/07/29 08:50:10;;;;;;;6.82;2.40;;;20.50;95.00;;;;;;5011770;28;20050;-44
2021/07/29 08:52:37;;;;;;;11.55;2.45;;;20.00;92.00;;;;;;5010191;28;20062;-46
2021/07/29 08:55:03;;;;;;;4.45;1.92;;;20.00;90.00;;;;;;5015899;28;20062;-45
2021/07/29 08:57:37;;;;;;;9.07;2.15;;;20.00;89.90;;;;;;5017487;28;20042;-44
2021/07/29 09:00:08;;;;;;;10.32;2.40;;;20.10;91.50;;;;;;5023041;28;20053;-44
2021/07/29 09:02:34;;;;;;;7.90;2.40;;;20.60;93.10;;;;;;5030313;28;20046;-46
2021/07/29 09:05:17;;;;;;;6.38;2.13;;;20.80;93.00;;;;;;5033615;28;20049;-44
2021/07/29 09:08:04;;;;;;;7.90;1.92;;;20.70;88.00;;;;;;5029705;28;20045;-47
2021/07/29 09:10:31;;;;;;;8.20;2.50;;;20.50;87.00;;;;;;5029554;28;20387;-45
2021/07/29 09:13:18;;;;;;;9.38;2.67;;;20.70;87.00;;;;;;5030377;28;20452;-44
2021/07/29 09:15:45;;;;;;;5.93;2.30;;;20.50;84.50;;;;;;5037414;28;20041;-47
2021/07/29 09:18:18;;;;;;;8.48;2.30;;;20.60;87.50;;;;;;5029756;28;20489;-46
2021/07/29 09:20:45;;;;;;;7.10;2.20;;;20.60;86.70;;;;;;5029473;28;20099;-47
2021/07/29 09:23:21;;;;;;;9.18;2.60;;;20.60;81.50;;;;;;5034177;28;20494;-46
2021/07/29 09:25:59;;;;;;;7.93;2.53;;;20.80;80.00;;;;;;5030010;28;20053;-46
2021/07/29 09:28:35;;;;;;;8.40;2.53;;;20.70;78.60;;;;;;5034440;28;20038;-48
2021/07/29 09:31:19;;;;;;;5.97;2.15;;;20.50;81.30;;;;;;5029288;28;20049;-45
2021/07/29 09:34:05;;;;;;;7.47;2.55;;;20.70;81.40;;;;;;5036037;28;20052;-44
2021/07/29 09:36:34;;;;;;;6.50;1.90;;;20.90;85.50;;;;;;5029756;28;20072;-46
2021/07/29 09:39:20;;;;;;;6.75;2.03;;;20.80;84.80;;;;;;5031049;28;20041;-48
2021/07/29 09:41:50;;;;;;;9.35;2.20;;;20.70;79.80;;;;;;5028461;28;20770;-44
2021/07/29 09:44:39;;;;;;;7.68;2.10;;;20.60;77.30;;;;;;5029183;28;20140;-47
2021/07/29 09:47:06;;;;;;;6.85;2.30;;;20.30;77.40;;;;;;5047724;28;20051;-45
2021/07/29 09:49:37;;;;;;;6.88;2.05;;;20.60;78.90;;;;;;5027980;28;20060;-47
2021/07/29 09:52:03;;;;;;;8.63;2.47;;;20.30;78.50;;;;;;5027634;28;20200;-45
2021/07/29 09:54:29;;;;;;;7.72;2.35;;;20.80;80.30;;;;;;5028177;28;20053;-49
2021/07/29 09:56:56;;;;;;;5.53;1.83;;;21.20;80.30;;;;;;5028746;28;20509;-49
2021/07/29 09:59:22;;;;;;;8.68;2.13;;;21.70;74.90;;;;;;5034598;28;20045;-46
2021/07/29 10:01:50;;;;;;;7.88;2.42;;;22.20;74.40;;;;;;5028356;28;20073;-46
2021/07/29 10:04:22;;;;;;;8.13;1.80;;;22.60;74.60;;;;;;5029549;28;20049;-47
2021/07/29 10:06:50;;;;;;;6.35;2.08;;;22.10;72.50;;;;;;5028417;28;20888;-48
2021/07/29 10:09:19;;;;;;;6.38;1.77;;;21.90;71.50;;;;;;5030005;28;20045;-46
2021/07/29 10:11:51;;;;;;;8.10;2.05;;;21.50;70.00;;;;;;5034584;28;20046;-47
2021/07/29 10:14:55;;;;;;;6.40;1.88;;;21.20;68.70;;;;;;5038998;28;20087;-45
2021/07/29 10:17:34;;;;;;;5.85;1.80;;;21.20;70.00;;;;;;5028332;28;20049;-46
2021/07/29 10:20:20;;;;;;;6.03;1.70;;;21.60;70.80;;;;;;5048706;28;20049;-47
2021/07/29 10:22:49;;;;;;;7.40;2.13;;;22.40;65.30;;;;;;5047070;28;20064;-46
2021/07/29 10:25:16;;;;;;;6.13;1.60;;;22.20;65.80;;;;;;5029595;28;20042;-45
2021/07/29 10:28:22;;;;;;;11.23;2.17;;;22.70;65.20;;;;;;5043744;28;20060;-46
2021/07/29 10:31:00;;;;;;;5.03;2.17;;;23.10;64.10;;;;;;5016760;28;20409;-47
2021/07/29 10:33:28;;;;;;;4.88;2.00;;;22.10;62.80;;;;;;5027773;28;20481;-48
2021/07/29 10:35:56;;;;;;;4.47;1.75;;;21.60;64.00;;;;;;5030198;28;20053;-46
2021/07/29 10:38:51;;;;;;;8.02;1.83;;;22.00;64.60;;;;;;5026250;28;20056;-46
2021/07/29 10:41:23;;;;;;;5.82;1.75;;;22.20;64.20;;;;;;5009157;28;20053;-46
2021/07/29 10:43:50;;;;;;;4.85;2.00;;;21.80;60.70;;;;;;5006311;28;20058;-46
2021/07/29 10:46:16;;;;;;;5.82;1.80;;;21.50;63.00;;;;;;5008116;28;20073;-47
2021/07/29 10:48:47;;;;;;;5.93;1.92;;;21.20;62.70;;;;;;5007197;28;20046;-51
2021/07/29 10:51:26;;;;;;;5.60;1.80;;;21.70;62.90;;;;;;5010670;28;20084;-49
2021/07/29 10:54:01;;;;;;;5.88;2.03;;;21.70;62.70;;;;;;5011248;28;20580;-45
2021/07/29 10:56:28;;;;;;;6.57;1.75;;;21.10;62.70;;;;;;5009907;28;20530;-45
2021/07/29 10:58:56;;;;;;;9.15;1.95;;;20.60;65.70;;;;;;5008731;28;20053;-45
2021/07/29 11:01:46;;;;;;;7.57;1.80;;;20.60;67.40;;;;;;5005901;28;20495;-46
2021/07/29 11:04:57;;;;;;;5.70;1.90;;;20.50;66.70;;;;;;5001192;28;20058;-46
2021/07/29 11:07:30;;;;;;;6.97;1.98;;;20.40;68.30;;;;;;5023190;28;20058;-46
2021/07/29 11:10:08;;;;;;;7.82;1.92;;;20.50;67.50;;;;;;5005156;28;20132;-46
2021/07/29 11:12:35;;;;;;;4.32;1.95;;;21.10;69.30;;;;;;5023795;28;20710;-46
2021/07/29 11:15:08;;;;;;;7.80;2.15;;;21.70;66.90;;;;;;5014204;28;20049;-45
2021/07/29 11:17:36;;;;;;;7.22;2.03;;;22.20;65.80;;;;;;4995752;28;20049;-46
2021/07/29 11:20:10;;;;;;;7.25;1.95;;;22.20;66.30;;;;;;5027893;28;20067;-46
2021/07/29 11:22:47;;;;;;;5.50;2.22;;;22.00;64.50;;;;;;5032416;28;20515;-46
2021/07/29 11:25:18;;;;;;;7.13;2.28;;;21.80;64.20;;;;;;5047205;28;20087;-48
2021/07/29 11:27:44;;;;;;;7.95;2.15;;;21.40;66.20;;;;;;5031764;28;20049;-45
2021/07/29 11:30:12;;;;;;;7.80;1.88;;;21.10;67.00;;;;;;5043866;28;20072;-45
2021/07/29 11:32:45;;;;;;;6.63;2.28;;;20.80;66.60;;;;;;5058273;28;20067;-47
2021/07/29 11:35:17;;;;;;;12.65;3.28;;;20.80;66.30;;;;;;5031450;28;20156;-48
2021/07/29 11:37:52;;;;;;;4.72;2.42;;;20.30;68.70;;;;;;5040848;28;20056;-48
2021/07/29 11:40:21;;;;;;;8.07;2.22;;;20.20;68.80;;;;;;5027689;28;20052;-48
2021/07/29 11:42:48;;;;;;;6.53;2.08;;;20.20;69.00;;;;;;5042103;28;20122;-45
2021/07/29 11:45:35;;;;;;;7.65;2.00;;;21.10;68.90;;;;;;5042335;28;20056;-46
2021/07/29 11:48:18;;;;;;;7.20;2.00;;;21.50;68.50;;;;;;5046708;28;20395;-47
2021/07/29 11:50:46;;;;;;;4.03;2.30;;;22.20;65.30;;;;;;5040389;28;20764;-47
2021/07/29 11:53:15;;;;;;;7.25;2.50;;;22.20;65.20;;;;;;5031269;28;20038;-45
2021/07/29 11:55:52;;;;;;;7.78;2.13;;;21.60;64.60;;;;;;5034928;28;20064;-45
2021/07/29 11:58:21;;;;;;;6.13;2.00;;;21.70;65.10;;;;;;5048959;28;20061;-47
2021/07/29 12:00:49;;;;;;;7.32;2.15;;;21.60;65.80;;;;;;5047696;28;20061;-43
2021/07/29 12:03:32;;;;;;;6.72;1.98;;;21.50;64.60;;;;;;5037854;28;20084;-46
2021/07/29 12:06:00;;;;;;;7.72;2.40;;;21.40;64.10;;;;;;5031083;28;20054;-45
2021/07/29 12:08:29;;;;;;;7.68;2.20;;;21.40;66.00;;;;;;5043840;28;20102;-44
2021/07/29 12:10:58;;;;;;;9.07;2.20;;;22.10;63.20;;;;;;5050852;28;20096;-45
2021/07/29 12:13:25;;;;;;;7.43;2.90;;;22.20;63.50;;;;;;5048798;28;20460;-46
2021/07/29 12:15:54;;;;;;;9.85;2.45;;;21.90;64.60;;;;;;5041578;28;20099;-46
2021/07/29 12:18:21;;;;;;;5.88;1.80;;;21.70;64.80;;;;;;5028458;28;20170;-47
2021/07/29 12:20:49;;;;;;;4.47;1.90;;;21.30;64.00;;;;;;5044157;28;20049;-46
2021/07/29 12:23:17;;;;;;;8.23;2.05;;;21.10;65.20;;;;;;5028814;28;20053;-46
2021/07/29 12:25:44;;;;;;;4.75;1.52;;;21.00;64.90;;;;;;5030683;28;20072;-44
2021/07/29 12:28:11;;;;;;;7.32;1.92;;;20.80;65.00;;;;;;5029264;28;20046;-44
2021/07/29 12:30:42;;;;;;;8.63;2.35;;;20.90;65.70;;;;;;5027615;28;20179;-46
2021/07/29 12:33:22;;;;;;;6.77;1.87;;;20.90;67.30;;;;;;5034049;28;20049;-45
2021/07/29 12:36:04;;;;;;;9.23;2.10;;;21.50;65.40;;;;;;5029763;28;20450;-43
2021/07/29 12:38:32;;;;;;;9.68;1.92;;;21.80;64.80;;;;;;5030315;28;20054;-44
2021/07/29 12:40:58;;;;;;;6.35;2.22;;;21.80;63.30;;;;;;5029423;28;20124;-43
2021/07/29 12:43:26;;;;;;;7.05;1.92;;;21.40;62.00;;;;;;5029954;28;20123;-43
2021/07/29 12:46:06;;;;;;;5.82;1.58;;;22.00;62.80;;;;;;5030453;28;20049;-43
2021/07/29 12:48:56;;;;;;;8.32;2.25;;;21.90;61.80;;;;;;5030193;28;20616;-43
2021/07/29 12:51:39;;;;;;;6.25;2.55;;;22.20;61.90;;;;;;5030625;28;20139;-42
2021/07/29 12:54:06;;;;;;;5.38;1.50;;;22.60;60.60;;;;;;5030155;28;20085;-45